createdAt,value
2023-05-20T00:01:50.343Z,3.33
2023-05-20T00:04:17.747Z,3.03
2023-05-20T00:06:45.187Z,2.97
2023-05-20T00:09:12.401Z,3.72
2023-05-20T00:11:42.657Z,3.83
2023-05-20T00:14:09.919Z,3.08
2023-05-20T00:16:37.280Z,3.65
2023-05-20T00:19:04.617Z,3.92
2023-05-20T00:21:31.949Z,3.08
2023-05-20T00:23:59.289Z,3.70
2023-05-20T00:26:26.699Z,3.00
2023-05-20T00:28:55.922Z,3.78
2023-05-20T00:31:23.296Z,3.88
2023-05-20T00:33:50.804Z,3.65
2023-05-20T00:36:18.030Z,3.50
2023-05-20T00:38:45.601Z,2.72
2023-05-20T00:41:12.875Z,3.25
2023-05-20T00:43:40.331Z,4.13
2023-05-20T00:46:07.885Z,3.72
2023-05-20T00:48:41.723Z,3.13
2023-05-20T00:51:11.844Z,3.67
2023-05-20T00:53:39.214Z,2.88
2023-05-20T00:56:08.066Z,3.70
2023-05-20T00:58:39.302Z,3.20
2023-05-20T01:01:06.897Z,3.45
2023-05-20T01:03:34.867Z,3.03
2023-05-20T01:06:03.117Z,2.90
2023-05-20T01:08:30.485Z,3.60
2023-05-20T01:11:08.650Z,3.28
2023-05-20T01:13:43.139Z,3.42
2023-05-20T01:16:11.898Z,2.75
2023-05-20T01:18:41.995Z,3.08
2023-05-20T01:21:12.162Z,3.15
2023-05-20T01:23:40.942Z,2.83
2023-05-20T01:26:13.579Z,3.08
2023-05-20T01:28:43.854Z,2.95
2023-05-20T01:31:24.847Z,3.47
2023-05-20T01:33:56.418Z,3.17
2023-05-20T01:36:23.959Z,3.20
2023-05-20T01:38:54.315Z,2.80
2023-05-20T01:41:25.149Z,3.45
2023-05-20T01:43:55.261Z,2.88
2023-05-20T01:46:22.682Z,3.17
2023-05-20T01:48:49.928Z,3.10
2023-05-20T01:51:17.784Z,3.60
2023-05-20T01:53:45.026Z,3.47
2023-05-20T01:56:12.278Z,3.28
2023-05-20T01:58:39.546Z,2.58
2023-05-20T02:01:06.891Z,2.80
2023-05-20T02:03:34.192Z,3.47
2023-05-20T02:06:01.558Z,2.55
2023-05-20T02:08:31.126Z,3.13
2023-05-20T02:11:00.530Z,3.13
2023-05-20T02:13:28.404Z,2.60
2023-05-20T02:15:56.321Z,2.92
2023-05-20T02:18:26.550Z,2.65
2023-05-20T02:20:53.849Z,2.80
2023-05-20T02:23:21.328Z,2.70
2023-05-20T02:25:48.593Z,2.80
2023-05-20T02:28:18.098Z,2.60
2023-05-20T02:30:45.507Z,2.65
2023-05-20T02:33:13.858Z,2.83
2023-05-20T02:35:41.263Z,2.88
2023-05-20T02:38:08.785Z,2.72
2023-05-20T02:40:37.487Z,3.00
2023-05-20T02:43:04.733Z,3.08
2023-05-20T02:45:34.787Z,2.78
2023-05-20T02:48:02.122Z,3.40
2023-05-20T02:50:29.942Z,2.83
2023-05-20T02:52:57.465Z,3.17
2023-05-20T02:55:24.836Z,3.35
2023-05-20T02:57:52.321Z,3.53
2023-05-20T03:00:19.559Z,3.33
2023-05-20T03:02:46.837Z,3.15
2023-05-20T03:05:14.573Z,3.17
2023-05-20T03:07:41.808Z,2.90
2023-05-20T03:10:10.655Z,3.00
2023-05-20T03:12:39.659Z,3.42
2023-05-20T03:15:07.953Z,2.90
2023-05-20T03:17:36.219Z,2.97
2023-05-20T03:20:08.124Z,3.13
2023-05-20T03:22:35.428Z,3.70
2023-05-20T03:25:05.454Z,2.90
2023-05-20T03:27:34.323Z,3.20
2023-05-20T03:30:02.295Z,3.35
2023-05-20T03:32:29.973Z,2.67
2023-05-20T03:34:58.089Z,3.75
2023-05-20T03:37:25.666Z,3.70
2023-05-20T03:39:52.964Z,3.10
2023-05-20T03:42:20.266Z,3.10
2023-05-20T03:44:47.538Z,3.08
2023-05-20T03:47:16.402Z,3.17
2023-05-20T03:49:43.731Z,3.25
2023-05-20T03:52:10.978Z,3.47
2023-05-20T03:54:38.206Z,3.13
2023-05-20T03:57:06.280Z,2.83
2023-05-20T03:59:33.690Z,3.25
2023-05-20T04:02:01.418Z,2.92
2023-05-20T04:04:29.217Z,3.03
2023-05-20T04:06:56.464Z,3.37
2023-05-20T04:09:24.371Z,3.00
2023-05-20T04:11:51.671Z,3.63
2023-05-20T04:14:19.340Z,3.75
2023-05-20T04:16:46.945Z,3.15
2023-05-20T04:19:16.028Z,3.80
2023-05-20T04:21:44.068Z,3.78
2023-05-20T04:24:11.881Z,3.75
2023-05-20T04:26:39.824Z,3.65
2023-05-20T04:29:07.026Z,4.00
2023-05-20T04:31:36.192Z,3.33
2023-05-20T04:34:04.396Z,3.63
2023-05-20T04:36:32.448Z,3.58
2023-05-20T04:39:01.843Z,3.40
2023-05-20T04:41:29.193Z,3.20
2023-05-20T04:44:00.487Z,3.72
2023-05-20T04:46:27.955Z,3.20
2023-05-20T04:48:55.256Z,3.97
2023-05-20T04:51:22.542Z,3.97
2023-05-20T04:53:52.371Z,3.47
2023-05-20T04:56:19.646Z,3.90
2023-05-20T04:58:47.022Z,4.03
2023-05-20T05:01:14.316Z,3.80
2023-05-20T05:03:42.694Z,3.80
2023-05-20T05:06:09.979Z,4.15
2023-05-20T05:08:37.226Z,3.77
2023-05-20T05:11:06.699Z,4.05
2023-05-20T05:13:34.195Z,3.60
2023-05-20T05:16:02.466Z,4.45
2023-05-20T05:18:31.546Z,3.65
2023-05-20T05:21:01.388Z,4.22
2023-05-20T05:23:28.754Z,3.63
2023-05-20T05:25:56.521Z,2.90
2023-05-20T05:28:24.669Z,3.63
2023-05-20T05:30:55.320Z,4.72
2023-05-20T05:33:22.791Z,3.20
2023-05-20T05:35:51.174Z,4.13
2023-05-20T05:38:18.707Z,3.28
2023-05-20T05:40:48.148Z,3.40
2023-05-20T05:43:16.970Z,3.15
2023-05-20T05:45:45.827Z,3.75
2023-05-20T05:48:13.702Z,3.20
2023-05-20T05:50:45.197Z,3.70
2023-05-20T05:53:13.352Z,3.78
2023-05-20T05:55:43.051Z,3.45
2023-05-20T05:58:10.347Z,4.00
2023-05-20T06:00:37.894Z,3.28
2023-05-20T06:03:05.228Z,3.58
2023-05-20T06:05:36.261Z,3.80
2023-05-20T06:08:03.697Z,3.30
2023-05-20T06:10:33.337Z,3.45
2023-05-20T06:13:00.687Z,3.50
2023-05-20T06:15:28.638Z,3.90
2023-05-20T06:17:56.843Z,3.40
2023-05-20T06:20:24.831Z,3.72
2023-05-20T06:22:52.509Z,3.53
2023-05-20T06:25:20.817Z,3.42
2023-05-20T06:27:48.128Z,3.45
2023-05-20T06:30:18.858Z,2.70
2023-05-20T06:32:46.909Z,3.00
2023-05-20T06:35:14.308Z,2.85
2023-05-20T06:37:41.769Z,3.10
2023-05-20T06:40:10.213Z,3.08
2023-05-20T06:42:37.774Z,3.40
2023-05-20T06:45:06.573Z,3.95
2023-05-20T06:47:42.005Z,3.58
2023-05-20T06:50:11.012Z,3.20
2023-05-20T06:52:38.349Z,3.30
2023-05-20T06:55:06.981Z,3.05
2023-05-20T06:57:35.884Z,2.80
2023-05-20T07:00:06.969Z,3.03
2023-05-20T07:02:39.106Z,3.00
2023-05-20T07:05:07.179Z,3.10
2023-05-20T07:07:34.782Z,3.80
2023-05-20T07:10:02.078Z,3.28
2023-05-20T07:12:29.333Z,3.20
2023-05-20T07:14:56.622Z,3.38
2023-05-20T07:17:24.675Z,3.90
2023-05-20T07:19:52.204Z,2.97
2023-05-20T07:22:19.481Z,2.63
2023-05-20T07:25:05.770Z,2.90
2023-05-20T07:27:33.141Z,2.95
2023-05-20T07:30:01.838Z,3.30
2023-05-20T07:32:30.758Z,2.63
2023-05-20T07:34:58.052Z,3.50
2023-05-20T07:37:25.389Z,3.38
2023-05-20T07:39:52.623Z,3.35
2023-05-20T07:42:21.980Z,3.45
2023-05-20T07:44:52.923Z,3.50
2023-05-20T07:47:20.393Z,3.00
2023-05-20T07:49:47.684Z,3.63
2023-05-20T07:52:14.960Z,3.03
2023-05-20T07:54:42.398Z,3.53
2023-05-20T07:57:09.932Z,3.55
2023-05-20T07:59:37.363Z,3.65
2023-05-20T08:02:05.427Z,3.28
2023-05-20T08:04:33.109Z,3.90
2023-05-20T08:07:00.573Z,3.50
2023-05-20T08:09:41.138Z,3.50
2023-05-20T08:12:08.714Z,3.05
2023-05-20T08:14:36.097Z,3.75
2023-05-20T08:17:03.969Z,3.40
2023-05-20T08:19:31.537Z,3.28
2023-05-20T08:21:58.870Z,3.40
2023-05-20T08:24:26.341Z,3.30
2023-05-20T08:26:53.845Z,3.53
2023-05-20T08:29:23.803Z,3.30
2023-05-20T08:31:52.189Z,3.35
2023-05-20T08:34:20.217Z,3.60
2023-05-20T08:36:47.554Z,3.35
2023-05-20T08:39:15.204Z,3.20
2023-05-20T08:41:42.641Z,3.30
2023-05-20T08:44:11.488Z,3.58
2023-05-20T08:46:40.863Z,3.60
2023-05-20T08:49:08.874Z,3.30
2023-05-20T08:51:37.445Z,3.33
2023-05-20T08:54:04.845Z,3.23
2023-05-20T08:56:32.746Z,3.55
2023-05-20T08:59:00.098Z,3.42
2023-05-20T09:01:27.791Z,3.80
2023-05-20T09:03:55.043Z,3.63
2023-05-20T09:06:22.321Z,3.50
2023-05-20T09:08:51.223Z,3.35
2023-05-20T09:11:19.315Z,3.05
2023-05-20T09:13:46.487Z,3.95
2023-05-20T09:16:13.820Z,3.97
2023-05-20T09:18:41.625Z,4.27
2023-05-20T09:21:10.349Z,3.83
2023-05-20T09:23:40.857Z,3.90
2023-05-20T09:26:08.090Z,3.67
2023-05-20T09:28:38.203Z,3.75
2023-05-20T09:31:06.639Z,3.90
2023-05-20T09:33:35.612Z,3.85
2023-05-20T09:36:04.705Z,3.90
2023-05-20T09:38:38.176Z,4.15
2023-05-20T09:41:12.290Z,4.47
2023-05-20T09:43:44.556Z,4.37
2023-05-20T09:46:11.855Z,3.80
2023-05-20T09:48:40.267Z,3.60
2023-05-20T09:51:07.981Z,4.22
2023-05-20T09:53:36.520Z,3.65
2023-05-20T09:56:04.094Z,3.47
2023-05-20T09:58:33.778Z,4.38
2023-05-20T10:01:01.241Z,3.65
2023-05-20T10:03:28.818Z,3.80
2023-05-20T10:07:03.454Z,4.18
2023-05-20T10:10:25.782Z,3.20
2023-05-20T10:13:10.125Z,4.30
2023-05-20T10:15:42.885Z,3.67
2023-05-20T10:18:38.801Z,3.30
2023-05-20T10:21:22.410Z,3.50
2023-05-20T10:23:49.942Z,3.33
2023-05-20T10:26:17.362Z,3.40
2023-05-20T10:28:46.226Z,3.70
2023-05-20T10:31:23.434Z,3.45
2023-05-20T10:33:53.712Z,3.70
2023-05-20T10:36:28.398Z,3.20
2023-05-20T10:38:57.048Z,3.00
2023-05-20T10:41:29.330Z,3.20
2023-05-20T10:44:03.795Z,3.03
2023-05-20T10:46:53.757Z,4.30
2023-05-20T10:49:25.390Z,3.30
2023-05-20T10:51:54.752Z,3.17
2023-05-20T10:54:23.292Z,3.28
2023-05-20T10:56:54.320Z,3.05
2023-05-20T10:59:22.497Z,3.15
2023-05-20T11:01:50.353Z,3.00
2023-05-20T11:04:20.312Z,3.35
2023-05-20T11:06:53.741Z,2.90
2023-05-20T11:09:21.493Z,3.10
2023-05-20T11:11:49.682Z,3.50
2023-05-20T11:14:20.878Z,3.30
2023-05-20T11:16:53.409Z,2.83
2023-05-20T11:19:21.408Z,3.28
2023-05-20T11:21:49.176Z,3.25
2023-05-20T11:24:25.707Z,3.00
2023-05-20T11:26:54.153Z,3.10
2023-05-20T11:29:22.410Z,3.38
2023-05-20T11:31:51.302Z,3.90
2023-05-20T11:34:26.847Z,3.85
2023-05-20T11:36:58.954Z,3.00
2023-05-20T11:39:29.959Z,3.30
2023-05-20T11:41:58.495Z,3.20
2023-05-20T11:44:26.321Z,2.92
2023-05-20T11:47:00.610Z,2.80
2023-05-20T11:49:28.574Z,3.05
2023-05-20T11:51:56.963Z,3.00
2023-05-20T11:54:24.612Z,2.75
2023-05-20T11:56:53.969Z,2.50
2023-05-20T11:59:24.259Z,3.00
2023-05-20T12:01:51.496Z,2.85
2023-05-20T12:04:19.107Z,3.10
2023-05-20T12:06:46.792Z,2.70
2023-05-20T12:09:21.478Z,2.33
2023-05-20T12:11:48.768Z,2.35
2023-05-20T12:14:16.057Z,2.70
2023-05-20T12:16:43.296Z,2.97
2023-05-20T12:19:10.554Z,3.00
2023-05-20T12:21:37.770Z,2.50
2023-05-20T12:24:06.899Z,2.35
2023-05-20T12:26:35.328Z,2.63
2023-05-20T12:29:02.609Z,3.00
2023-05-20T12:31:31.690Z,2.78
2023-05-20T12:34:00.322Z,2.50
2023-05-20T12:36:27.823Z,2.67
2023-05-20T12:38:55.084Z,2.80
2023-05-20T12:41:22.579Z,2.23
2023-05-20T12:43:49.844Z,2.60
2023-05-20T12:46:17.129Z,2.50
2023-05-20T12:48:44.330Z,2.30
2023-05-20T12:51:11.553Z,2.60
2023-05-20T12:53:38.844Z,2.90
2023-05-20T12:56:07.882Z,2.47
2023-05-20T12:58:35.440Z,2.30
2023-05-20T13:01:02.724Z,2.45
2023-05-20T13:03:30.036Z,2.58
2023-05-20T13:05:57.850Z,2.83
2023-05-20T13:08:26.557Z,2.75
2023-05-20T13:10:55.519Z,2.33
2023-05-20T13:13:22.739Z,2.40
2023-05-20T13:15:50.389Z,2.63
2023-05-20T13:18:17.742Z,2.73
2023-05-20T13:20:45.136Z,2.65
2023-05-20T13:23:12.374Z,2.58
2023-05-20T13:25:41.511Z,3.25
2023-05-20T13:28:08.865Z,2.63
2023-05-20T13:30:36.502Z,2.77
2023-05-20T13:33:04.079Z,3.00
2023-05-20T13:35:33.979Z,2.70
2023-05-20T13:38:01.175Z,3.35
2023-05-20T13:40:28.505Z,2.75
2023-05-20T13:42:56.394Z,2.63
2023-05-20T13:45:23.699Z,3.03
2023-05-20T13:47:50.991Z,2.75
2023-05-20T13:50:18.420Z,2.55
2023-05-20T13:52:45.772Z,2.70
2023-05-20T13:55:13.117Z,2.80
2023-05-20T13:57:40.525Z,2.33
2023-05-20T14:00:09.289Z,2.63
2023-05-20T14:02:36.627Z,2.38
2023-05-20T14:05:04.160Z,2.70
2023-05-20T14:07:31.454Z,3.00
2023-05-20T14:09:58.699Z,2.53
2023-05-20T14:12:26.117Z,2.30
2023-05-20T14:14:53.341Z,3.05
2023-05-20T14:17:20.856Z,2.65
2023-05-20T14:19:48.089Z,2.70
2023-05-20T14:22:15.697Z,2.97
2023-05-20T14:24:43.023Z,2.70
2023-05-20T14:27:11.457Z,2.60
2023-05-20T14:29:38.662Z,3.03
2023-05-20T14:32:06.164Z,2.80
2023-05-20T14:34:33.444Z,2.47
2023-05-20T14:37:06.567Z,3.00
2023-05-20T14:39:33.799Z,2.83
2023-05-20T14:42:01.054Z,3.30
2023-05-20T14:44:28.295Z,3.50
2023-05-20T14:46:55.748Z,2.72
2023-05-20T14:49:23.221Z,3.60
2023-05-20T14:51:50.466Z,3.40
2023-05-20T14:54:19.062Z,3.45
2023-05-20T14:56:48.169Z,4.90
2023-05-20T14:59:17.308Z,3.45
2023-05-20T15:01:44.655Z,3.20
2023-05-20T15:04:14.300Z,3.03
2023-05-20T15:09:08.943Z,3.63
2023-05-20T15:11:36.288Z,3.53
2023-05-20T15:14:03.634Z,3.70
2023-05-20T15:16:30.917Z,3.55
2023-05-20T15:18:58.208Z,3.80
2023-05-20T15:21:25.691Z,3.90
2023-05-20T15:23:53.111Z,3.58
2023-05-20T15:26:21.734Z,3.63
2023-05-20T15:28:48.990Z,3.40
2023-05-20T15:31:16.236Z,3.60
2023-05-20T15:33:43.540Z,4.13
2023-05-20T15:36:11.127Z,3.30
2023-05-20T15:38:38.374Z,4.05
2023-05-20T15:41:06.696Z,3.70
2023-05-20T15:43:34.311Z,3.60
2023-05-20T15:46:01.708Z,4.23
2023-05-20T15:48:28.922Z,3.80
2023-05-20T15:50:56.418Z,3.90
2023-05-20T15:53:23.708Z,3.97
2023-05-20T15:55:51.644Z,4.20
2023-05-20T15:58:18.898Z,3.97
2023-05-20T16:00:46.166Z,4.35
2023-05-20T16:03:13.570Z,4.43
2023-05-20T16:05:40.923Z,4.13
2023-05-20T16:08:08.195Z,4.07
2023-05-20T16:10:35.750Z,4.00
2023-05-20T16:13:03.693Z,4.55
2023-05-20T16:15:36.505Z,4.30
2023-05-20T16:18:04.145Z,4.25
2023-05-20T16:20:31.709Z,3.67
2023-05-20T16:22:59.191Z,4.90
2023-05-20T16:25:26.437Z,3.78
2023-05-20T16:27:53.725Z,4.18
2023-05-20T16:30:21.166Z,4.43
2023-05-20T16:32:48.743Z,3.88
2023-05-20T16:35:16.533Z,3.37
2023-05-20T16:37:44.531Z,4.07
2023-05-20T16:40:12.213Z,3.28
2023-05-20T16:42:43.906Z,3.75
2023-05-20T16:45:11.875Z,4.20
2023-05-20T16:47:39.223Z,4.00
2023-05-20T16:50:07.236Z,3.47
2023-05-20T16:52:35.306Z,3.70
2023-05-20T16:55:04.474Z,3.22
2023-05-20T16:57:32.547Z,3.28
2023-05-20T16:59:59.855Z,3.57
2023-05-20T17:02:27.128Z,3.55
2023-05-20T17:04:54.455Z,3.45
2023-05-20T17:07:21.699Z,3.70
2023-05-20T17:09:49.127Z,3.83
2023-05-20T17:12:16.568Z,3.57
2023-05-20T17:14:43.892Z,3.30
2023-05-20T17:17:13.767Z,3.33
2023-05-20T17:19:41.162Z,3.35
2023-05-20T17:22:08.526Z,3.60
2023-05-20T17:24:35.976Z,3.53
2023-05-20T17:27:03.759Z,3.00
2023-05-20T17:29:31.547Z,2.97
2023-05-20T17:31:58.917Z,3.70
2023-05-20T17:34:26.340Z,3.22
2023-05-20T17:36:53.951Z,3.80
2023-05-20T17:39:21.435Z,3.40
2023-05-20T17:41:48.671Z,3.20
2023-05-20T17:44:16.161Z,3.45
2023-05-20T17:46:43.431Z,3.35
2023-05-20T17:49:10.938Z,3.05
2023-05-20T17:51:38.208Z,3.47
2023-05-20T17:54:06.140Z,3.33
2023-05-20T17:56:33.526Z,3.78
2023-05-20T17:59:01.248Z,3.58
2023-05-20T18:01:29.506Z,3.33
2023-05-20T18:03:58.397Z,3.42
2023-05-20T18:06:26.449Z,3.40
2023-05-20T18:08:55.905Z,3.22
2023-05-20T18:11:25.581Z,3.28
2023-05-20T18:13:54.306Z,3.40
2023-05-20T18:16:21.659Z,3.03
2023-05-20T18:18:48.962Z,3.47
2023-05-20T18:21:16.292Z,3.40
2023-05-20T18:23:43.515Z,3.78
2023-05-20T18:26:12.685Z,3.10
2023-05-20T18:28:40.556Z,3.15
2023-05-20T18:31:08.215Z,3.35
2023-05-20T18:33:36.966Z,2.88
2023-05-20T18:36:05.851Z,2.90
2023-05-20T18:38:33.328Z,2.83
2023-05-20T18:41:00.550Z,2.67
2023-05-20T18:43:27.803Z,2.75
2023-05-20T18:45:55.230Z,2.92
2023-05-20T18:48:26.771Z,3.00
2023-05-20T18:50:56.088Z,2.87
2023-05-20T18:53:23.658Z,3.13
2023-05-20T18:55:51.075Z,3.05
2023-05-20T18:58:18.294Z,3.05
2023-05-20T19:00:45.863Z,2.90
2023-05-20T19:03:13.135Z,2.77
2023-05-20T19:05:40.614Z,2.88
2023-05-20T19:08:09.205Z,2.25
2023-05-20T19:10:36.525Z,2.65
2023-05-20T19:13:03.771Z,2.63
2023-05-20T19:15:31.238Z,2.60
2023-05-20T19:17:58.746Z,2.25
2023-05-20T19:20:26.051Z,2.40
2023-05-20T19:22:53.405Z,2.25
2023-05-20T19:25:20.669Z,2.10
2023-05-20T19:27:47.919Z,2.63
2023-05-20T19:30:15.164Z,2.65
2023-05-20T19:32:42.593Z,2.78
2023-05-20T19:35:09.992Z,2.15
2023-05-20T19:37:37.265Z,2.58
2023-05-20T19:40:04.916Z,2.60
2023-05-20T19:42:32.223Z,2.47
2023-05-20T19:44:59.413Z,1.98
2023-05-20T19:47:26.868Z,2.13
2023-05-20T19:49:54.117Z,2.40
2023-05-20T19:52:21.317Z,2.22
2023-05-20T19:54:48.685Z,2.75
2023-05-20T19:57:16.259Z,2.13
2023-05-20T19:59:43.566Z,2.20
2023-05-20T20:02:10.942Z,1.90
2023-05-20T20:04:38.337Z,2.47
2023-05-20T20:07:07.429Z,2.70
2023-05-20T20:09:35.746Z,2.10
2023-05-20T20:12:03.266Z,2.05
2023-05-20T20:14:30.898Z,2.67
2023-05-20T20:16:59.699Z,2.20
2023-05-20T20:19:28.275Z,2.08
2023-05-20T20:21:56.692Z,2.10
2023-05-20T20:24:24.159Z,2.00
2023-05-20T20:26:54.099Z,2.22
2023-05-20T20:29:22.085Z,2.08
2023-05-20T20:31:49.401Z,2.67
2023-05-20T20:34:16.725Z,2.30
2023-05-20T20:36:44.970Z,2.30
2023-05-20T20:39:19.003Z,1.90
2023-05-20T20:41:47.409Z,2.13
2023-05-20T20:44:22.941Z,2.28
2023-05-20T20:46:51.105Z,2.10
2023-05-20T20:49:22.158Z,3.45
2023-05-20T20:51:50.786Z,2.55
2023-05-20T20:54:18.051Z,2.05
2023-05-20T20:56:46.956Z,2.30
2023-05-20T20:59:15.620Z,2.40
2023-05-20T21:01:44.584Z,2.22
2023-05-20T21:04:13.676Z,2.40
2023-05-20T21:06:47.587Z,2.42
2023-05-20T21:09:15.019Z,2.10
2023-05-20T21:11:42.479Z,2.10
2023-05-20T21:14:10.205Z,1.90
2023-05-20T21:16:37.715Z,2.20
2023-05-20T21:19:05.293Z,2.40
2023-05-20T21:21:32.619Z,2.35
2023-05-20T21:23:59.865Z,2.33
2023-05-20T21:26:27.261Z,2.40
2023-05-20T21:28:54.510Z,2.28
2023-05-20T21:31:21.812Z,2.20
2023-05-20T21:33:49.088Z,2.10
2023-05-20T21:36:16.465Z,2.13
2023-05-20T21:38:43.693Z,2.58
2023-05-20T21:41:11.018Z,1.90
2023-05-20T21:43:38.287Z,2.03
2023-05-20T21:46:07.739Z,2.03
2023-05-20T21:48:35.053Z,2.42
2023-05-20T21:51:02.345Z,2.15
2023-05-20T21:53:29.577Z,2.47
2023-05-20T21:55:57.022Z,1.85
2023-05-20T21:58:24.282Z,2.13
2023-05-20T22:00:51.684Z,2.08
2023-05-20T22:03:19.292Z,2.47
2023-05-20T22:05:46.588Z,2.50
2023-05-20T22:08:16.253Z,1.90
2023-05-20T22:10:43.908Z,2.00
2023-05-20T22:13:13.607Z,2.20
2023-05-20T22:15:40.894Z,2.13
2023-05-20T22:18:09.438Z,2.40
2023-05-20T22:20:38.477Z,1.90
2023-05-20T22:23:05.870Z,2.33
2023-05-20T22:25:33.268Z,2.17
2023-05-20T22:28:01.359Z,1.92
2023-05-20T22:30:28.649Z,2.58
2023-05-20T22:32:58.533Z,2.20
2023-05-20T22:35:26.173Z,2.20
2023-05-20T22:37:54.840Z,2.70
2023-05-20T22:40:22.235Z,2.10
2023-05-20T22:42:49.536Z,2.10
2023-05-20T22:45:17.028Z,2.40
2023-05-20T22:47:48.276Z,2.40
2023-05-20T22:50:15.709Z,2.47
2023-05-20T22:52:43.109Z,2.50
2023-05-20T22:55:11.561Z,2.70
2023-05-20T22:57:39.135Z,2.63
2023-05-20T23:00:07.997Z,2.70
2023-05-20T23:02:35.431Z,2.53
2023-05-20T23:05:04.159Z,2.95
2023-05-20T23:07:32.000Z,2.30
2023-05-20T23:09:59.412Z,2.72
2023-05-20T23:12:26.756Z,2.75
2023-05-20T23:14:54.109Z,3.10
2023-05-20T23:17:21.498Z,2.40
2023-05-20T23:19:48.772Z,2.90
2023-05-20T23:22:16.506Z,2.92
2023-05-20T23:24:43.854Z,2.97
2023-05-20T23:27:11.213Z,2.80
2023-05-20T23:29:38.511Z,2.75
2023-05-20T23:32:06.026Z,3.20
2023-05-20T23:34:33.938Z,2.90
2023-05-20T23:37:01.176Z,3.03
2023-05-20T23:39:28.457Z,2.90
2023-05-20T23:41:55.915Z,3.05
2023-05-20T23:44:23.223Z,2.95
2023-05-20T23:46:51.049Z,3.47
2023-05-20T23:49:18.778Z,2.97
2023-05-20T23:51:46.205Z,3.20
2023-05-20T23:54:16.354Z,2.55
2023-05-20T23:56:43.912Z,2.80
2023-05-20T23:59:11.309Z,2.80
